Aérodrome :
LOGIN :

S'inscrire | Disclaimer

   EN    FR    IT 

 










Légende :    VFR   VFR Marginal   IFR   IFR Intensif   IFR Très Intensif
Visi : 
Plafond : 
>= 8 km
>= 3000ft
5 à 8 km
1000 à 3000 ft
1500m à 5 km
500 à 1000 ft
800 à 1500m
200 à 500 ft
< 800m
< 200 ft
Symboles :   Orages  Brouillard  Fortes neiges  Fortes précipitations  Vent > 20 kt
SIGMETs :   Divers  Orages  Givrage  Turbulence  Onde Orograph.  Cendres Volcan.






- Altitude de l'aérodrome : 1768 ft


LEHC - Huesca Pirineos

DERNIER METAR :
  • 161100Z 24006KT 160V300 CAVOK 12/00 Q1016

METARs EXPIRÉS :
  • 161030Z 24005KT 160V320 CAVOK 11/01 Q1016
  • 161000Z 25005KT 200V330 CAVOK 11/00 Q1016
  • 160930Z 29006KT 210V340 9999 FEW046 09/01 Q1017
  • 160900Z 27006KT 240V300 9999 BKN049 08/03 Q1017
  • 160830Z 24006KT 170V300 9999 SCT043 07/03 Q1017

TAF TAF LEHC
Valide du 16 à 09h jusqu'au 17 à 09h UTC


160800Z 1609/1709 VRB04KT 9999 SCT040 TX14/1614Z TN02/1706Z
PROB40
TEMPO 1612/1618 RA FEW040TCU
PROB30
TEMPO 1612/1618 08015G28KT TSRA FEW040CB



MET'MAP, la Météo Aéronautique d'un coup d'oeil ! - Copyright ORBIFLY Décembre 2007 - Disclaimer

ORBIFLY MET'MAP TEAM :

Programmation & Développement : Alexandra Zaïnal
Sur une idée originale de : Baudouin d'Aumeries
Assistance à la programmation : Marc-Olivier Méhu
Soutien technique & logistique : Manuel Goepfert

Contact : metmap@orbifly.com




SOURCES & CREDITS :

   NOAA